Green Cove Springs, Florida
Current Conditions -  °F | °C
As of 6:53 AM on Friday 28 Nov 2014 (Local Time) from KNIP Reporting Station
Clear Clear  
Wind Chill: 34°   Ceiling: Unl
Heat Index: 43°   Visibility: 10mi
Dew Point: 30°   Wind: 22mph
Humidity: 60%   Direction: 350°N
Pressure: 30.35"   Gusts: NA
Location:  29.99°N, 81.68°W
Report Text: KNIP 281153Z 35019KT 10SM CLR 06/M01 A3035 RMK AO2 SLP271 T00611011 10089 20061 53006 $
Loading
Personal Weather Stations






























Interactive Weather Map New forecast layout! Learn more

10-Day Weather Forecast

Advertisements
Track Severe Weather on mobile